TAF KARA
AMD KARA 082130Z 0822/0918 VRB05KT P6SM SCT050 FM090500 11004KT 5SM BR BKN007 FM090900 VRB04KT 1SM BR OVC003 FM091500 15006KT 4SM BR OVC005 FM091700 18010KT P6SM OVC007=
METAR KARA
WC KARA
WS KARA
WV KARA